Time;durP1;ratioP1;P1;durP2;ratioP2;P2;SDS_P1;SDS_P2;PMS_P1;PMS_P2;Temp;Humidity;BMP_temperature;BMP_pressure;BME280_temperature;BME280_humidity;BME280_pressure;Samples;Min_cycle;Max_cycle;Signal;HPM_P1;HPM_P2
2022/01/15 00:00:34;;;;;;;33.88;12.45;;;3.80;99.90;;;;;;5080320;28;20026;-44
2022/01/15 00:03:00;;;;;;;38.35;13.18;;;3.80;99.90;;;;;;5080625;28;20024;-46
2022/01/15 00:05:25;;;;;;;47.05;11.63;;;3.80;99.90;;;;;;5081223;28;20559;-47
2022/01/15 00:07:51;;;;;;;37.45;13.82;;;3.80;99.90;;;;;;5079729;28;20020;-45
2022/01/15 00:10:20;;;;;;;34.72;13.05;;;3.80;99.90;;;;;;5089098;28;20027;-46
2022/01/15 00:12:46;;;;;;;28.25;11.68;;;3.70;99.90;;;;;;5088774;28;20029;-45
2022/01/15 00:15:23;;;;;;;25.33;10.13;;;3.80;99.90;;;;;;5088477;28;20036;-45
2022/01/15 00:17:55;;;;;;;31.13;12.18;;;3.80;99.90;;;;;;5088025;28;20465;-45
2022/01/15 00:20:23;;;;;;;24.70;11.23;;;3.70;99.90;;;;;;5088739;28;20040;-45
2022/01/15 00:22:50;;;;;;;24.52;10.32;;;3.80;99.90;;;;;;5086423;28;20020;-44
2022/01/15 00:25:18;;;;;;;39.53;11.32;;;3.70;99.90;;;;;;5080258;28;20077;-47
2022/01/15 00:27:44;;;;;;;25.17;9.43;;;3.60;99.90;;;;;;5083982;28;20322;-45
2022/01/15 00:30:11;;;;;;;25.50;9.38;;;3.60;99.90;;;;;;5078961;28;20020;-45
2022/01/15 00:32:37;;;;;;;28.13;9.75;;;3.60;99.90;;;;;;5088928;28;20462;-47
2022/01/15 00:35:04;;;;;;;17.77;8.43;;;3.60;99.90;;;;;;5088715;28;20067;-45
2022/01/15 00:37:31;;;;;;;17.45;9.13;;;3.60;99.90;;;;;;5086860;28;20497;-46
2022/01/15 00:39:58;;;;;;;41.80;9.70;;;3.60;99.90;;;;;;5087189;28;20048;-47
2022/01/15 00:42:23;;;;;;;20.27;7.97;;;3.50;99.90;;;;;;5076469;28;20025;-45
2022/01/15 00:44:50;;;;;;;14.98;8.02;;;3.50;99.90;;;;;;5084524;28;20089;-46
2022/01/15 00:47:16;;;;;;;73.95;12.30;;;3.40;99.90;;;;;;5087872;28;20024;-47
2022/01/15 00:49:41;;;;;;;17.08;8.15;;;3.40;99.90;;;;;;5083357;28;20082;-48
2022/01/15 00:52:07;;;;;;;15.25;7.68;;;3.40;99.90;;;;;;5078272;28;20370;-47
2022/01/15 00:54:33;;;;;;;21.27;8.70;;;3.40;99.90;;;;;;5085010;28;20141;-47
2022/01/15 00:56:58;;;;;;;18.55;7.90;;;3.40;99.90;;;;;;5077137;28;20028;-46
2022/01/15 00:59:23;;;;;;;19.90;7.82;;;3.40;99.90;;;;;;5086498;28;20282;-46
2022/01/15 01:01:49;;;;;;;58.63;11.10;;;3.40;99.90;;;;;;5088157;28;20456;-45
2022/01/15 01:04:14;;;;;;;13.80;7.40;;;3.30;99.90;;;;;;5091147;28;20036;-46
2022/01/15 01:06:40;;;;;;;14.50;7.60;;;3.30;99.90;;;;;;5087083;28;20150;-46
2022/01/15 01:09:05;;;;;;;13.60;7.90;;;3.30;99.90;;;;;;5082933;28;20027;-46
2022/01/15 01:11:43;;;;;;;14.77;7.43;;;3.30;99.90;;;;;;5092212;28;20048;-46
2022/01/15 01:24:49;;;;;;;15.45;7.18;;;3.20;99.90;;;;;;5080102;28;20036;-46
2022/01/15 01:27:41;;;;;;;11.40;6.32;;;3.20;99.90;;;;;;5081581;28;20020;-47
2022/01/15 01:30:16;;;;;;;11.05;6.35;;;3.20;99.90;;;;;;5083370;28;20111;-46
2022/01/15 01:35:16;;;;;;;13.30;7.38;;;3.20;99.90;;;;;;5091536;28;20050;-46
2022/01/15 01:37:47;;;;;;;11.50;7.25;;;3.20;99.90;;;;;;5089625;28;20380;-47
2022/01/15 01:42:51;;;;;;;17.30;8.63;;;3.20;99.90;;;;;;5079533;28;20070;-46
2022/01/15 01:45:16;;;;;;;11.98;6.55;;;3.20;99.90;;;;;;5089905;28;20069;-45
2022/01/15 01:47:43;;;;;;;10.70;7.15;;;3.10;99.90;;;;;;5078338;28;20020;-46
2022/01/15 01:50:16;;;;;;;13.45;7.20;;;3.20;99.90;;;;;;5089845;28;20036;-46
2022/01/15 01:52:44;;;;;;;10.88;6.35;;;3.10;99.90;;;;;;5078641;28;20024;-45
2022/01/15 01:55:10;;;;;;;17.55;8.48;;;3.10;99.90;;;;;;5090048;28;20024;-46
2022/01/15 01:57:36;;;;;;;18.50;7.43;;;3.20;99.90;;;;;;5079383;28;20660;-45
2022/01/15 02:00:05;;;;;;;12.82;7.22;;;3.20;99.90;;;;;;5088599;28;20028;-45
2022/01/15 02:02:31;;;;;;;13.55;8.05;;;3.20;99.90;;;;;;5081021;28;20521;-46
2022/01/15 02:04:58;;;;;;;33.05;8.30;;;3.20;99.90;;;;;;5088463;28;20060;-46
2022/01/15 02:07:27;;;;;;;15.80;7.85;;;3.20;99.90;;;;;;5084330;28;20021;-46
2022/01/15 02:09:54;;;;;;;12.82;6.88;;;3.20;99.90;;;;;;5087558;28;20104;-45
2022/01/15 02:12:19;;;;;;;11.35;6.60;;;3.20;99.90;;;;;;5083513;28;20024;-46
2022/01/15 02:14:45;;;;;;;12.95;7.07;;;3.20;99.90;;;;;;5080002;28;20073;-46
2022/01/15 02:17:12;;;;;;;17.75;7.93;;;3.20;99.90;;;;;;5088338;28;20096;-46
2022/01/15 02:19:56;;;;;;;12.15;6.65;;;3.20;99.90;;;;;;5082131;28;20044;-45
2022/01/15 02:25:06;;;;;;;16.80;7.78;;;3.20;99.90;;;;;;5082082;28;20031;-46
2022/01/15 02:27:33;;;;;;;12.02;6.50;;;3.30;99.90;;;;;;5085600;28;20028;-45
2022/01/15 02:30:00;;;;;;;13.48;6.75;;;3.30;99.90;;;;;;5078984;28;20077;-46
2022/01/15 02:32:25;;;;;;;16.42;6.63;;;3.20;99.90;;;;;;5088126;28;20055;-45
2022/01/15 02:34:51;;;;;;;16.33;6.35;;;3.30;99.90;;;;;;5078554;28;20457;-45
2022/01/15 02:37:16;;;;;;;14.00;5.88;;;3.30;99.90;;;;;;5089709;28;20012;-45
2022/01/15 02:39:42;;;;;;;8.85;5.60;;;3.30;99.90;;;;;;5081594;28;20505;-45
2022/01/15 02:42:07;;;;;;;11.70;6.03;;;3.30;99.90;;;;;;5081981;28;20102;-46
2022/01/15 02:44:37;;;;;;;15.50;6.57;;;3.30;99.90;;;;;;5086460;28;20099;-46
2022/01/15 02:49:29;;;;;;;15.30;6.57;;;3.30;99.90;;;;;;5089557;28;20096;-45
2022/01/15 02:51:54;;;;;;;15.25;6.18;;;3.20;99.90;;;;;;5087783;28;20076;-45
2022/01/15 02:54:20;;;;;;;9.32;5.57;;;3.20;99.90;;;;;;5081852;28;20051;-46
2022/01/15 02:56:46;;;;;;;15.15;6.45;;;3.20;99.90;;;;;;5090020;28;20031;-46
2022/01/15 02:59:17;;;;;;;35.47;6.53;;;3.20;99.90;;;;;;5088031;28;20028;-45
2022/01/15 03:01:43;;;;;;;56.15;7.78;;;3.10;99.90;;;;;;5083580;28;20021;-46
2022/01/15 03:04:08;;;;;;;20.33;5.57;;;3.10;99.90;;;;;;5080074;28;20037;-46
2022/01/15 03:06:34;;;;;;;18.13;5.57;;;3.10;99.90;;;;;;5089905;28;20070;-45
2022/01/15 03:08:59;;;;;;;24.85;5.28;;;3.00;99.90;;;;;;5088904;28;20032;-46
2022/01/15 03:11:27;;;;;;;19.15;4.88;;;3.00;99.90;;;;;;5083423;28;20535;-46
2022/01/15 03:13:53;;;;;;;9.95;4.13;;;3.00;99.90;;;;;;5086185;28;20481;-45
2022/01/15 03:16:20;;;;;;;42.17;6.35;;;3.00;99.90;;;;;;5089399;28;20103;-46
2022/01/15 03:18:46;;;;;;;14.10;5.03;;;2.90;99.90;;;;;;5079929;28;20051;-46
2022/01/15 03:21:12;;;;;;;7.35;4.50;;;2.90;99.90;;;;;;5079630;28;20028;-46
2022/01/15 03:23:38;;;;;;;8.52;4.65;;;3.00;99.90;;;;;;5081406;28;20022;-48
2022/01/15 03:26:05;;;;;;;7.15;4.40;;;3.00;99.90;;;;;;5080906;28;20404;-45
2022/01/15 03:28:31;;;;;;;19.60;4.75;;;2.90;99.90;;;;;;5089030;28;20485;-46
2022/01/15 03:30:57;;;;;;;56.30;7.88;;;2.90;99.90;;;;;;5089459;28;20052;-46
2022/01/15 03:33:22;;;;;;;6.38;4.00;;;2.90;99.90;;;;;;5076736;28;20024;-45
2022/01/15 03:35:48;;;;;;;11.27;4.25;;;2.90;99.90;;;;;;5085169;28;20064;-45
2022/01/15 03:38:13;;;;;;;11.43;4.78;;;2.90;99.90;;;;;;5079290;28;20028;-46
2022/01/15 03:40:39;;;;;;;12.55;5.55;;;2.90;99.90;;;;;;5083396;28;20020;-46
2022/01/15 03:43:06;;;;;;;11.60;4.78;;;2.90;99.90;;;;;;5085577;28;20032;-46
2022/01/15 03:45:33;;;;;;;14.25;5.40;;;2.90;99.90;;;;;;5082726;28;20028;-46
2022/01/15 03:47:58;;;;;;;9.88;5.00;;;2.90;99.90;;;;;;5085847;28;20085;-48
2022/01/15 03:50:25;;;;;;;9.05;5.18;;;2.90;99.90;;;;;;5081468;28;20028;-46
2022/01/15 03:52:51;;;;;;;9.77;5.10;;;3.00;99.90;;;;;;5080018;28;20024;-47
2022/01/15 03:55:17;;;;;;;21.17;5.53;;;3.00;99.90;;;;;;5080487;28;20089;-47
2022/01/15 03:57:43;;;;;;;25.42;5.70;;;3.00;99.90;;;;;;5081420;28;20025;-45
2022/01/15 04:00:13;;;;;;;11.88;5.30;;;2.90;99.90;;;;;;5078983;28;20067;-46
2022/01/15 04:02:39;;;;;;;11.80;5.43;;;2.90;99.90;;;;;;5084992;28;20558;-48
2022/01/15 04:05:05;;;;;;;8.68;5.28;;;2.90;99.90;;;;;;5070284;28;20025;-47
2022/01/15 04:07:31;;;;;;;9.98;5.03;;;2.90;99.90;;;;;;5058525;28;20024;-46
2022/01/15 04:09:56;;;;;;;10.10;5.57;;;2.90;99.90;;;;;;5067347;28;20013;-45
2022/01/15 04:12:22;;;;;;;10.35;4.93;;;2.90;99.90;;;;;;5061309;28;20549;-45
2022/01/15 04:14:47;;;;;;;7.38;4.30;;;2.90;99.90;;;;;;5074994;28;20028;-47
2022/01/15 04:17:13;;;;;;;8.52;4.97;;;2.90;99.90;;;;;;5066386;28;20028;-47
2022/01/15 04:19:40;;;;;;;9.30;4.55;;;2.90;99.90;;;;;;5061264;28;20028;-46
2022/01/15 04:22:06;;;;;;;8.80;5.03;;;2.90;99.90;;;;;;5065091;28;20024;-46
2022/01/15 04:24:31;;;;;;;11.80;4.78;;;2.90;99.90;;;;;;5064747;28;20027;-46
2022/01/15 04:26:57;;;;;;;10.90;5.10;;;2.90;99.90;;;;;;5079324;28;20028;-45
2022/01/15 04:29:23;;;;;;;6.57;3.85;;;2.90;99.90;;;;;;5083180;28;20389;-47
2022/01/15 04:31:49;;;;;;;9.18;4.30;;;2.80;99.90;;;;;;5076874;28;20249;-45
2022/01/15 04:34:20;;;;;;;9.15;4.20;;;2.80;99.90;;;;;;5088215;28;20020;-48
2022/01/15 04:36:47;;;;;;;6.55;4.13;;;2.80;99.90;;;;;;5081723;28;20024;-46
2022/01/15 04:39:13;;;;;;;6.55;4.10;;;2.80;99.90;;;;;;5082142;28;20031;-46
2022/01/15 04:41:38;;;;;;;6.97;4.25;;;2.80;99.90;;;;;;5074574;28;20024;-49
2022/01/15 04:44:05;;;;;;;7.53;4.25;;;2.70;99.90;;;;;;5083757;28;20207;-46
2022/01/15 04:46:35;;;;;;;10.93;4.53;;;2.70;99.90;;;;;;5090127;28;20231;-46
2022/01/15 04:49:02;;;;;;;10.50;4.68;;;2.70;99.90;;;;;;5083285;28;20024;-47
2022/01/15 04:51:28;;;;;;;6.72;4.22;;;2.70;99.90;;;;;;5090827;28;20117;-47
2022/01/15 04:53:54;;;;;;;12.43;4.72;;;2.60;99.90;;;;;;5083869;28;20200;-48
2022/01/15 04:56:20;;;;;;;7.90;4.50;;;2.60;99.90;;;;;;5092261;28;20454;-49
2022/01/15 04:58:45;;;;;;;7.75;4.60;;;2.60;99.90;;;;;;5079468;28;20044;-46
2022/01/15 05:01:11;;;;;;;8.65;5.05;;;2.60;99.90;;;;;;5089692;28;20027;-48
2022/01/15 05:03:36;;;;;;;7.97;4.00;;;2.50;99.90;;;;;;5082928;28;20707;-47
2022/01/15 05:06:02;;;;;;;9.02;4.05;;;2.50;99.90;;;;;;5089818;28;20032;-46
2022/01/15 05:08:27;;;;;;;7.88;4.38;;;2.50;99.90;;;;;;5082338;28;20385;-45
2022/01/15 05:10:57;;;;;;;16.08;4.25;;;2.40;99.90;;;;;;5081771;28;20026;-46
2022/01/15 05:13:27;;;;;;;6.93;4.47;;;2.40;99.90;;;;;;5084469;28;20059;-45
2022/01/15 05:15:52;;;;;;;7.00;4.65;;;2.30;99.90;;;;;;5083150;28;20035;-45
2022/01/15 05:18:18;;;;;;;10.27;4.22;;;2.40;99.90;;;;;;5084699;28;20032;-47
2022/01/15 05:20:45;;;;;;;10.07;4.20;;;2.40;99.90;;;;;;5083181;28;20039;-46
2022/01/15 05:23:11;;;;;;;11.57;4.30;;;2.40;99.90;;;;;;5085594;28;20060;-48
2022/01/15 05:25:37;;;;;;;10.75;4.80;;;2.40;99.90;;;;;;5083014;28;20020;-47
2022/01/15 05:28:03;;;;;;;8.65;4.65;;;2.40;99.90;;;;;;5085245;28;20024;-45
2022/01/15 05:30:30;;;;;;;10.88;4.43;;;2.40;99.90;;;;;;5083074;28;20024;-48
2022/01/15 05:32:56;;;;;;;10.25;5.03;;;2.50;99.90;;;;;;5086133;28;20032;-46
2022/01/15 05:35:26;;;;;;;8.95;4.55;;;2.50;99.90;;;;;;5083265;28;20024;-45
2022/01/15 05:37:52;;;;;;;6.60;3.93;;;2.50;99.90;;;;;;5085640;28;20048;-46
2022/01/15 05:40:17;;;;;;;13.68;4.75;;;2.50;99.90;;;;;;5071275;28;20025;-47
2022/01/15 05:42:43;;;;;;;11.70;5.00;;;2.60;99.90;;;;;;5070088;28;20024;-45
2022/01/15 05:45:09;;;;;;;8.75;4.80;;;2.60;99.90;;;;;;5081403;28;20039;-49
2022/01/15 05:47:35;;;;;;;14.82;6.10;;;2.60;99.90;;;;;;5090574;28;20063;-49
2022/01/15 05:50:00;;;;;;;15.55;6.30;;;2.60;99.90;;;;;;5079081;28;20064;-47
2022/01/15 05:52:26;;;;;;;11.15;4.95;;;2.60;99.90;;;;;;5091191;28;20028;-46
2022/01/15 05:54:51;;;;;;;15.32;5.47;;;2.60;99.90;;;;;;5083022;28;20039;-45
2022/01/15 05:57:17;;;;;;;13.10;5.60;;;2.70;99.90;;;;;;5081952;28;20422;-49
2022/01/15 05:59:42;;;;;;;13.45;5.78;;;2.70;99.90;;;;;;5083243;28;20068;-46
2022/01/15 06:02:08;;;;;;;11.48;5.72;;;2.60;99.90;;;;;;5082761;28;20020;-46
2022/01/15 06:04:33;;;;;;;12.00;4.97;;;2.70;99.90;;;;;;5087730;28;20020;-45
2022/01/15 06:06:59;;;;;;;13.82;5.07;;;2.70;99.90;;;;;;5077551;28;20016;-46
2022/01/15 06:09:24;;;;;;;14.50;5.07;;;2.70;99.90;;;;;;5059607;28;20035;-46
2022/01/15 06:11:50;;;;;;;14.77;5.40;;;2.60;99.90;;;;;;5080886;28;20028;-45
2022/01/15 06:14:16;;;;;;;14.23;5.85;;;2.70;99.90;;;;;;5090767;28;20035;-47
2022/01/15 06:16:41;;;;;;;18.17;5.45;;;2.70;99.90;;;;;;5079098;28;20446;-47
2022/01/15 06:19:07;;;;;;;13.18;4.75;;;2.80;99.90;;;;;;5089324;28;20157;-46
2022/01/15 06:21:32;;;;;;;14.75;5.18;;;2.80;99.90;;;;;;5081839;28;20077;-48
2022/01/15 06:23:57;;;;;;;15.63;4.82;;;2.80;99.90;;;;;;5088164;28;20035;-48
2022/01/15 06:26:23;;;;;;;17.98;4.78;;;2.90;99.90;;;;;;5082145;28;20143;-46
2022/01/15 06:28:48;;;;;;;19.15;5.03;;;2.90;99.90;;;;;;5081510;28;20035;-46
2022/01/15 06:31:15;;;;;;;10.38;3.78;;;2.90;99.90;;;;;;5082512;28;20115;-45
2022/01/15 06:33:41;;;;;;;8.55;3.88;;;2.90;99.90;;;;;;5082075;28;20017;-46
2022/01/15 06:36:06;;;;;;;14.07;3.95;;;2.90;99.90;;;;;;5088390;28;20375;-45
2022/01/15 06:38:32;;;;;;;12.98;3.65;;;2.90;99.90;;;;;;5077454;28;20020;-45
2022/01/15 06:40:57;;;;;;;11.50;4.65;;;2.90;99.90;;;;;;5087803;28;20017;-48
2022/01/15 06:43:23;;;;;;;14.27;3.95;;;2.90;99.90;;;;;;5084083;28;20033;-47
2022/01/15 06:45:48;;;;;;;10.00;4.03;;;2.90;99.90;;;;;;5086151;28;20385;-45
2022/01/15 06:48:14;;;;;;;15.88;4.10;;;2.90;99.90;;;;;;5078772;28;20024;-48
2022/01/15 06:50:39;;;;;;;10.25;3.72;;;2.90;99.90;;;;;;5066120;28;20086;-48
2022/01/15 06:53:05;;;;;;;11.88;4.18;;;2.80;99.90;;;;;;5077636;28;20038;-46
2022/01/15 06:55:30;;;;;;;13.68;3.35;;;2.80;99.90;;;;;;5083201;28;20020;-46
2022/01/15 06:57:56;;;;;;;10.00;4.70;;;2.90;99.90;;;;;;5081677;28;20028;-48
2022/01/15 07:00:24;;;;;;;10.43;3.75;;;2.80;99.90;;;;;;5082757;28;20074;-47
2022/01/15 07:02:49;;;;;;;8.25;4.00;;;2.80;99.90;;;;;;5081123;28;20028;-46
2022/01/15 07:05:15;;;;;;;9.70;3.40;;;2.80;99.90;;;;;;5075667;28;20024;-48
2022/01/15 07:07:44;;;;;;;10.85;3.85;;;2.80;99.90;;;;;;5062074;28;20555;-46
2022/01/15 07:10:10;;;;;;;13.43;4.13;;;2.80;99.90;;;;;;5071827;28;20021;-46
2022/01/15 07:12:36;;;;;;;9.20;3.40;;;2.80;99.90;;;;;;5074362;28;20027;-45
2022/01/15 07:15:02;;;;;;;6.90;3.60;;;2.80;99.90;;;;;;5076379;28;20036;-47
2022/01/15 07:17:27;;;;;;;9.20;4.47;;;2.80;99.90;;;;;;5081889;28;20024;-46
2022/01/15 07:19:53;;;;;;;7.78;3.92;;;2.90;99.90;;;;;;5082246;28;20099;-47
2022/01/15 07:22:18;;;;;;;17.08;4.65;;;2.80;99.90;;;;;;5081202;28;20032;-47
2022/01/15 07:24:44;;;;;;;12.50;4.32;;;2.80;99.90;;;;;;5076002;28;20359;-45
2022/01/15 07:27:09;;;;;;;11.65;5.43;;;2.80;99.90;;;;;;5077659;28;20457;-47
2022/01/15 07:29:38;;;;;;;12.48;5.60;;;2.80;99.90;;;;;;5063268;28;20092;-45
2022/01/15 07:32:04;;;;;;;10.93;5.22;;;2.80;99.90;;;;;;5066300;28;20021;-46
2022/01/15 07:34:30;;;;;;;12.23;5.07;;;2.80;99.90;;;;;;5062125;28;20064;-46
2022/01/15 07:36:59;;;;;;;9.73;4.95;;;2.80;99.90;;;;;;5064927;28;20045;-45
2022/01/15 07:39:26;;;;;;;9.95;5.40;;;2.80;99.90;;;;;;5058303;28;20027;-47
2022/01/15 07:41:52;;;;;;;14.65;6.07;;;2.70;99.90;;;;;;5063963;28;20039;-46
2022/01/15 07:44:18;;;;;;;18.27;6.57;;;2.70;99.90;;;;;;5053247;28;20129;-46
2022/01/15 07:46:43;;;;;;;15.88;6.78;;;2.80;99.90;;;;;;5075224;28;20095;-45
2022/01/15 07:49:08;;;;;;;19.83;6.95;;;2.80;99.90;;;;;;5067553;28;20178;-46
2022/01/15 07:51:34;;;;;;;18.48;8.38;;;2.80;99.90;;;;;;5070689;28;20031;-46
2022/01/15 07:54:01;;;;;;;27.25;8.75;;;2.80;99.90;;;;;;5085867;28;20024;-47
2022/01/15 07:56:26;;;;;;;23.33;6.95;;;2.80;99.90;;;;;;5078739;28;20389;-46
2022/01/15 07:58:52;;;;;;;19.40;7.20;;;2.80;99.90;;;;;;5071167;28;20037;-48
2022/01/15 08:01:19;;;;;;;27.88;8.93;;;2.90;99.90;;;;;;5072248;28;20103;-46
2022/01/15 08:03:46;;;;;;;27.45;9.32;;;2.90;99.90;;;;;;5076325;28;20021;-46
2022/01/15 08:06:14;;;;;;;17.63;8.18;;;2.90;99.90;;;;;;5081955;28;20269;-49
2022/01/15 08:08:39;;;;;;;28.52;8.75;;;2.90;99.90;;;;;;5080878;28;20137;-45
2022/01/15 08:11:05;;;;;;;21.20;8.10;;;3.00;99.90;;;;;;5082245;28;20107;-48
2022/01/15 08:13:31;;;;;;;17.92;8.25;;;3.00;99.90;;;;;;5080878;28;20404;-46
2022/01/15 08:15:58;;;;;;;18.52;7.78;;;3.10;99.90;;;;;;5079074;28;20178;-48
2022/01/15 08:18:24;;;;;;;30.50;10.48;;;3.20;99.90;;;;;;5076407;28;20024;-46
2022/01/15 08:20:50;;;;;;;21.55;9.25;;;3.20;99.90;;;;;;5074377;28;20037;-47
2022/01/15 08:23:15;;;;;;;20.00;7.60;;;3.20;99.90;;;;;;5085344;28;20032;-46
2022/01/15 08:25:41;;;;;;;20.35;8.30;;;3.30;99.90;;;;;;5077683;28;20266;-47
2022/01/15 08:28:07;;;;;;;22.00;8.27;;;3.30;99.90;;;;;;5076392;28;20024;-47
2022/01/15 08:30:32;;;;;;;20.60;7.10;;;3.40;99.90;;;;;;5081154;28;20103;-46
2022/01/15 08:32:58;;;;;;;15.95;7.10;;;3.50;99.90;;;;;;5088167;28;20027;-49
2022/01/15 08:35:25;;;;;;;21.15;7.47;;;3.50;99.90;;;;;;5083016;28;20036;-47
2022/01/15 08:37:51;;;;;;;19.35;7.60;;;3.60;99.90;;;;;;5075194;28;20053;-46
2022/01/15 08:40:20;;;;;;;17.27;6.65;;;3.70;99.90;;;;;;5087441;28;20020;-47
2022/01/15 08:42:46;;;;;;;12.52;6.50;;;3.80;99.90;;;;;;5078224;28;20111;-48
2022/01/15 08:45:13;;;;;;;14.50;6.57;;;3.80;99.90;;;;;;5079542;28;20362;-49
2022/01/15 08:47:39;;;;;;;14.90;6.80;;;3.90;99.90;;;;;;5087201;28;20048;-47
2022/01/15 08:50:05;;;;;;;13.38;6.85;;;4.00;99.90;;;;;;5087653;28;20066;-47
2022/01/15 08:52:31;;;;;;;16.98;7.22;;;4.10;99.90;;;;;;5069278;28;20031;-47
2022/01/15 08:54:57;;;;;;;13.65;5.88;;;4.10;99.90;;;;;;5087788;28;20032;-48
2022/01/15 08:57:24;;;;;;;14.52;6.15;;;4.20;99.90;;;;;;5077315;28;20022;-46
2022/01/15 08:59:50;;;;;;;14.45;6.22;;;4.30;99.90;;;;;;5065072;28;20386;-49
2022/01/15 09:02:15;;;;;;;9.52;5.45;;;4.30;99.90;;;;;;5060353;28;20025;-47
2022/01/15 09:04:41;;;;;;;13.05;6.18;;;4.40;99.90;;;;;;5067417;28;20374;-48
2022/01/15 09:07:08;;;;;;;11.55;5.25;;;4.40;99.90;;;;;;5065982;28;20460;-47
2022/01/15 09:09:33;;;;;;;12.32;6.53;;;4.60;99.90;;;;;;5071551;28;20107;-47
2022/01/15 09:11:59;;;;;;;10.23;5.63;;;4.60;99.90;;;;;;5078654;28;20119;-46
2022/01/15 09:14:25;;;;;;;14.20;6.00;;;4.70;99.90;;;;;;5087674;28;20111;-48
2022/01/15 09:16:50;;;;;;;10.95;5.45;;;4.80;99.90;;;;;;5079195;28;20021;-49
2022/01/15 09:19:15;;;;;;;12.25;5.63;;;4.90;99.90;;;;;;5078000;28;20428;-47
2022/01/15 09:21:41;;;;;;;16.73;6.93;;;5.10;99.90;;;;;;5079339;28;20032;-50
2022/01/15 09:24:06;;;;;;;18.23;7.65;;;5.10;99.90;;;;;;5080061;28;20262;-50
2022/01/15 09:32:02;;;;;;;13.40;7.93;;;5.30;99.90;;;;;;5091357;28;20089;-48
2022/01/15 09:34:28;;;;;;;19.95;8.90;;;5.50;99.90;;;;;;5090884;28;20032;-48
2022/01/15 09:36:54;;;;;;;15.63;8.20;;;5.50;99.90;;;;;;5077922;28;20035;-47
2022/01/15 09:39:20;;;;;;;17.13;7.75;;;5.60;99.90;;;;;;5081653;28;20032;-50
2022/01/15 09:41:48;;;;;;;19.25;7.88;;;5.70;99.90;;;;;;5090729;28;20126;-49
2022/01/15 09:44:15;;;;;;;14.63;8.05;;;5.70;99.90;;;;;;5076786;28;20016;-51
2022/01/15 09:46:41;;;;;;;16.73;7.88;;;5.80;99.90;;;;;;5082248;28;20020;-47
2022/01/15 09:49:09;;;;;;;13.52;6.97;;;6.00;99.90;;;;;;5081916;28;20056;-49
2022/01/15 09:51:35;;;;;;;15.20;6.82;;;6.00;99.90;;;;;;5082026;28;20016;-48
2022/01/15 09:54:00;;;;;;;11.73;6.32;;;6.10;99.90;;;;;;5090828;28;20039;-47
2022/01/15 09:56:26;;;;;;;15.65;8.27;;;6.10;99.90;;;;;;5080909;28;20344;-47
2022/01/15 09:58:54;;;;;;;13.43;7.68;;;6.10;99.90;;;;;;5078160;28;20025;-47
2022/01/15 10:01:19;;;;;;;15.10;6.97;;;6.10;99.90;;;;;;5067212;28;20652;-47
2022/01/15 10:03:45;;;;;;;14.45;6.65;;;6.20;99.90;;;;;;5077265;28;20107;-49
2022/01/15 10:06:11;;;;;;;17.80;6.78;;;6.10;99.90;;;;;;5088102;28;20111;-47
2022/01/15 10:08:37;;;;;;;18.60;8.38;;;6.10;99.90;;;;;;5063339;28;20048;-47
2022/01/15 10:11:11;;;;;;;16.52;7.30;;;6.10;99.90;;;;;;5077209;28;20024;-49
2022/01/15 10:13:44;;;;;;;17.58;6.55;;;6.20;99.90;;;;;;5084538;28;20024;-49
2022/01/15 10:16:13;;;;;;;17.15;5.55;;;6.20;99.90;;;;;;5061748;28;20041;-48
2022/01/15 10:18:44;;;;;;;13.90;5.78;;;6.20;99.90;;;;;;5049403;28;20032;-48
2022/01/15 10:21:16;;;;;;;18.08;6.28;;;6.30;99.90;;;;;;5049639;28;20600;-50
2022/01/15 10:23:48;;;;;;;22.63;6.32;;;6.30;99.90;;;;;;5048002;28;20033;-49
2022/01/15 10:26:22;;;;;;;25.85;6.18;;;6.40;99.90;;;;;;5068438;28;20024;-47
2022/01/15 10:29:06;;;;;;;18.77;5.55;;;6.20;99.90;;;;;;5083623;28;20028;-48
2022/01/15 10:31:37;;;;;;;22.70;6.45;;;6.40;99.90;;;;;;5089472;28;20478;-50
2022/01/15 10:34:27;;;;;;;17.00;6.20;;;6.40;99.90;;;;;;5089553;28;20119;-47
2022/01/15 10:37:05;;;;;;;15.77;5.07;;;6.40;99.90;;;;;;5081559;28;20028;-47
2022/01/15 10:39:31;;;;;;;23.55;5.47;;;6.50;99.90;;;;;;5076517;28;20028;-49
2022/01/15 10:41:56;;;;;;;21.27;4.90;;;6.50;99.90;;;;;;5089870;28;20073;-48
2022/01/15 10:44:34;;;;;;;19.05;5.53;;;6.50;99.90;;;;;;5080309;28;20107;-48
2022/01/15 10:47:05;;;;;;;18.70;5.97;;;6.50;99.90;;;;;;5087265;28;20161;-49
2022/01/15 10:49:31;;;;;;;17.25;4.65;;;6.60;99.90;;;;;;5088910;28;20024;-49
2022/01/15 10:52:17;;;;;;;23.20;4.70;;;6.60;99.90;;;;;;5083802;28;20024;-49
2022/01/15 10:55:08;;;;;;;18.67;5.05;;;6.40;99.90;;;;;;5084529;28;20031;-50
2022/01/15 10:57:42;;;;;;;20.58;5.53;;;6.40;99.90;;;;;;5078621;28;20473;-47
2022/01/15 11:00:19;;;;;;;21.92;4.72;;;6.50;99.90;;;;;;5088071;28;20089;-50
2022/01/15 11:02:50;;;;;;;19.52;5.10;;;6.50;99.90;;;;;;5063818;28;20031;-47
2022/01/15 11:05:37;;;;;;;20.13;5.35;;;6.50;99.90;;;;;;5051463;28;20067;-48
2022/01/15 11:08:09;;;;;;;16.75;4.57;;;6.60;99.90;;;;;;5048282;28;20542;-47
2022/01/15 11:10:39;;;;;;;15.10;4.32;;;6.50;99.90;;;;;;5048955;28;20061;-49
2022/01/15 11:13:07;;;;;;;15.85;5.07;;;6.60;99.90;;;;;;5049077;28;20441;-49
2022/01/15 11:15:34;;;;;;;25.05;5.47;;;6.70;99.90;;;;;;5048669;28;20052;-50
2022/01/15 11:18:01;;;;;;;20.60;5.55;;;6.80;99.90;;;;;;5048403;28;20029;-49
2022/01/15 11:20:30;;;;;;;17.25;4.53;;;6.70;99.90;;;;;;5077136;28;20020;-48
2022/01/15 11:22:56;;;;;;;20.60;4.95;;;6.60;99.90;;;;;;5085936;28;20122;-50
2022/01/15 11:25:22;;;;;;;20.63;4.78;;;6.60;99.90;;;;;;5087016;28;20111;-50
2022/01/15 11:27:48;;;;;;;22.98;4.40;;;6.70;99.90;;;;;;5079742;28;20449;-50
2022/01/15 11:30:14;;;;;;;18.65;4.03;;;6.80;99.90;;;;;;5089241;28;20111;-47
2022/01/15 11:32:42;;;;;;;19.02;4.10;;;6.80;99.90;;;;;;5089002;28;20114;-50
2022/01/15 11:35:09;;;;;;;21.40;4.03;;;6.80;99.90;;;;;;5083895;28;20424;-48
2022/01/15 11:37:56;;;;;;;16.40;4.68;;;6.90;99.90;;;;;;5079912;28;20036;-47
2022/01/15 11:40:34;;;;;;;32.75;6.32;;;6.90;99.90;;;;;;5089047;28;20024;-48
2022/01/15 11:43:24;;;;;;;26.17;6.15;;;6.90;99.90;;;;;;5082476;28;20173;-48
2022/01/15 11:45:50;;;;;;;24.38;5.82;;;6.70;99.90;;;;;;5084504;28;20024;-50
2022/01/15 11:48:23;;;;;;;26.30;5.95;;;6.70;99.90;;;;;;5078938;28;20023;-48
2022/01/15 11:51:14;;;;;;;25.95;5.53;;;7.00;99.90;;;;;;5084594;28;20036;-48
2022/01/15 11:53:51;;;;;;;19.83;4.32;;;7.00;99.90;;;;;;5087213;28;20544;-50
2022/01/15 11:56:23;;;;;;;22.88;4.43;;;6.90;99.90;;;;;;5085109;28;20449;-48
2022/01/15 11:58:48;;;;;;;18.10;4.57;;;6.80;99.90;;;;;;5077685;28;20052;-48
2022/01/15 12:01:43;;;;;;;16.10;4.50;;;6.80;99.90;;;;;;5087085;28;20060;-49
2022/01/15 12:04:24;;;;;;;17.88;5.22;;;6.60;99.90;;;;;;5068955;28;20036;-48
2022/01/15 12:07:16;;;;;;;18.42;4.72;;;6.60;99.90;;;;;;5065999;28;20036;-48
2022/01/15 12:09:47;;;;;;;21.92;5.60;;;6.60;99.90;;;;;;5071427;28;20494;-48
2022/01/15 12:12:19;;;;;;;;;;;6.60;99.90;;;;;;5088193;28;20020;-48
2022/01/15 12:14:51;;;;;;;24.92;4.82;;;6.60;99.90;;;;;;5070079;28;19905;-50
2022/01/15 12:17:28;;;;;;;17.90;5.63;;;6.60;99.90;;;;;;5075487;28;20099;-47
2022/01/15 12:19:55;;;;;;;19.05;5.25;;;6.40;99.90;;;;;;5079274;28;20478;-48
2022/01/15 12:22:37;;;;;;;23.27;5.55;;;6.50;99.90;;;;;;5066869;28;20094;-50
2022/01/15 12:25:07;;;;;;;20.17;5.00;;;6.70;99.90;;;;;;5077503;28;20382;-47
2022/01/15 12:27:34;;;;;;;14.45;4.55;;;6.70;99.90;;;;;;5083977;28;20067;-47
2022/01/15 12:30:13;;;;;;;25.08;5.85;;;6.60;99.90;;;;;;5077130;28;20040;-50
2022/01/15 12:32:42;;;;;;;26.67;6.13;;;6.50;99.90;;;;;;5087816;28;20107;-49
2022/01/15 12:35:18;;;;;;;23.33;5.28;;;6.50;99.90;;;;;;5086526;28;20044;-48
2022/01/15 12:37:53;;;;;;;28.13;5.97;;;6.60;99.90;;;;;;5087204;28;20033;-47
2022/01/15 12:40:21;;;;;;;21.70;5.93;;;6.40;99.90;;;;;;5088086;28;20354;-48
2022/01/15 12:43:04;;;;;;;19.80;5.22;;;6.40;99.90;;;;;;5079369;28;20020;-50
2022/01/15 12:45:31;;;;;;;17.27;4.82;;;6.40;99.90;;;;;;5074408;28;20028;-49
2022/01/15 12:47:56;;;;;;;21.10;6.35;;;6.40;99.90;;;;;;5081852;28;20023;-50
2022/01/15 12:50:23;;;;;;;26.08;5.50;;;6.40;99.90;;;;;;5079801;28;20040;-47
2022/01/15 12:52:58;;;;;;;19.23;6.50;;;6.30;99.90;;;;;;5083673;28;20024;-48
2022/01/15 12:55:29;;;;;;;24.63;6.57;;;6.30;99.90;;;;;;5068108;28;20070;-48
2022/01/15 12:57:54;;;;;;;;;;;6.30;99.90;;;;;;5066734;28;20021;-47
2022/01/15 13:00:25;;;;;;;23.48;6.00;;;6.30;99.90;;;;;;5082274;28;19998;-47
2022/01/15 13:02:59;;;;;;;20.58;6.63;;;6.40;99.90;;;;;;5091471;28;20503;-49
2022/01/15 13:05:31;;;;;;;28.40;7.72;;;6.40;99.90;;;;;;5069485;28;20024;-48
2022/01/15 13:08:28;;;;;;;34.45;8.70;;;6.30;99.90;;;;;;5086112;28;20028;-49
2022/01/15 13:10:58;;;;;;;21.80;5.93;;;6.20;99.90;;;;;;5080291;28;20091;-49
2022/01/15 13:13:32;;;;;;;22.33;6.25;;;6.10;99.90;;;;;;5083866;28;20027;-49
2022/01/15 13:16:13;;;;;;;23.13;6.90;;;6.20;99.90;;;;;;5087673;28;20028;-47
2022/01/15 13:18:41;;;;;;;23.58;6.47;;;6.20;99.90;;;;;;5085026;28;20028;-48